Time;durP1;ratioP1;P1;durP2;ratioP2;P2;SDS_P1;SDS_P2;PMS_P1;PMS_P2;Temp;Humidity;BMP_temperature;BMP_pressure;BME280_temperature;BME280_humidity;BME280_pressure;Samples;Min_cycle;Max_cycle;Signal;HPM_P1;HPM_P2
2022/08/30 00:01:04;;;;;;;7.60;6.90;;;18.90;99.90;;;;;;5012537;28;20568;-70
2022/08/30 00:03:39;;;;;;;8.47;6.80;;;18.90;99.90;;;;;;5003313;28;20197;-70
2022/08/30 00:06:06;;;;;;;6.97;6.30;;;18.80;99.90;;;;;;5012494;28;20477;-70
2022/08/30 00:08:33;;;;;;;7.30;6.67;;;18.70;99.90;;;;;;5002278;28;21425;-70
2022/08/30 00:11:00;;;;;;;7.40;6.77;;;18.70;99.90;;;;;;5011708;28;20602;-70
2022/08/30 00:13:26;;;;;;;7.43;6.73;;;18.70;99.90;;;;;;5011932;28;20524;-70
2022/08/30 00:15:52;;;;;;;9.10;7.53;;;18.70;99.90;;;;;;5012927;28;21038;-70
2022/08/30 00:18:19;;;;;;;8.00;7.30;;;18.60;99.90;;;;;;5011758;28;20189;-71
2022/08/30 00:20:46;;;;;;;7.40;6.80;;;18.50;99.90;;;;;;5011888;28;20465;-70
2022/08/30 00:23:12;;;;;;;6.90;6.30;;;18.40;99.90;;;;;;5011505;28;20473;-70
2022/08/30 00:25:38;;;;;;;6.27;5.77;;;18.30;99.90;;;;;;5013723;28;20455;-71
2022/08/30 00:28:04;;;;;;;7.53;6.83;;;18.30;99.90;;;;;;5012760;28;20488;-71
2022/08/30 00:30:30;;;;;;;7.13;6.50;;;18.30;99.90;;;;;;5013149;28;21009;-70
2022/08/30 00:32:56;;;;;;;9.20;8.30;;;18.30;99.90;;;;;;5009254;28;20442;-70
2022/08/30 00:35:22;;;;;;;8.27;6.87;;;18.30;99.90;;;;;;5013173;28;20193;-70
2022/08/30 00:37:49;;;;;;;7.73;6.80;;;18.40;99.90;;;;;;5010925;28;20607;-70
2022/08/30 00:40:16;;;;;;;8.47;7.87;;;18.40;99.90;;;;;;5010065;28;20461;-70
2022/08/30 00:42:43;;;;;;;8.13;7.43;;;18.20;99.90;;;;;;5011591;28;20989;-70
2022/08/30 00:45:18;;;;;;;7.63;7.00;;;18.20;99.90;;;;;;5011713;28;20946;-70
2022/08/30 00:47:44;;;;;;;7.87;7.27;;;18.00;99.90;;;;;;5011899;28;21105;-73
2022/08/30 00:50:11;;;;;;;7.17;6.60;;;17.90;99.90;;;;;;5011225;28;20445;-72
2022/08/30 00:52:40;;;;;;;7.53;6.90;;;17.90;99.90;;;;;;5009762;28;20187;-70
2022/08/30 00:55:06;;;;;;;9.07;8.30;;;17.90;99.90;;;;;;5010197;28;20784;-70
2022/08/30 00:57:34;;;;;;;10.20;7.37;;;17.90;99.90;;;;;;5006518;28;20488;-70
2022/08/30 01:00:01;;;;;;;9.23;8.30;;;17.90;99.90;;;;;;5011096;28;20822;-70
2022/08/30 01:02:29;;;;;;;7.50;6.90;;;17.90;99.90;;;;;;5011986;28;20437;-71
2022/08/30 01:04:56;;;;;;;8.23;7.43;;;17.80;99.90;;;;;;5011094;28;20437;-70
2022/08/30 01:07:23;;;;;;;8.80;7.90;;;17.80;99.90;;;;;;5010814;28;20533;-70
2022/08/30 01:09:49;;;;;;;8.57;7.83;;;17.70;99.90;;;;;;5009388;28;20580;-70
2022/08/30 01:14:44;;;;;;;8.47;7.87;;;17.80;99.90;;;;;;4987940;28;20486;-65
2022/08/30 01:17:10;;;;;;;9.00;8.17;;;17.70;99.90;;;;;;4991174;28;20434;-66
2022/08/30 01:19:55;;;;;;;8.53;7.73;;;17.70;99.90;;;;;;4992134;28;20434;-65
2022/08/30 01:22:37;;;;;;;7.20;6.60;;;17.80;99.90;;;;;;4992451;28;20194;-64
2022/08/30 01:25:06;;;;;;;8.20;6.97;;;17.90;99.90;;;;;;5008178;28;20438;-65
2022/08/30 01:27:35;;;;;;;9.80;6.97;;;17.90;99.90;;;;;;5007893;28;20838;-66
2022/08/30 01:30:03;;;;;;;8.70;7.90;;;17.90;99.90;;;;;;5010845;28;20500;-65
2022/08/30 01:32:29;;;;;;;8.50;7.63;;;17.90;99.90;;;;;;5010445;28;20440;-65
2022/08/30 01:34:55;;;;;;;10.07;8.10;;;17.80;99.90;;;;;;5010301;28;20938;-64
2022/08/30 01:37:26;;;;;;;8.37;7.37;;;17.80;99.90;;;;;;5010375;28;20212;-66
2022/08/30 01:39:52;;;;;;;7.57;6.93;;;17.70;99.90;;;;;;5009584;28;20576;-65
2022/08/30 01:42:18;;;;;;;10.03;7.87;;;17.70;99.90;;;;;;5009861;28;20449;-65
2022/08/30 01:44:45;;;;;;;9.10;8.30;;;17.60;99.90;;;;;;5009919;28;20919;-66
2022/08/30 01:47:12;;;;;;;12.27;8.17;;;17.60;99.90;;;;;;5009472;28;20430;-66
2022/08/30 01:49:38;;;;;;;8.10;7.40;;;17.60;99.90;;;;;;5009595;28;20438;-65
2022/08/30 01:52:05;;;;;;;8.17;7.47;;;17.60;99.90;;;;;;5007662;28;20441;-64
2022/08/30 01:54:32;;;;;;;8.27;7.47;;;17.60;99.90;;;;;;5011509;28;20532;-65
2022/08/30 01:56:58;;;;;;;10.90;6.87;;;17.60;99.90;;;;;;5009975;28;20437;-65
2022/08/30 01:59:23;;;;;;;9.07;8.20;;;17.60;99.90;;;;;;5009194;28;20445;-66
2022/08/30 02:01:49;;;;;;;8.33;7.20;;;17.60;99.90;;;;;;5009549;28;20632;-66
2022/08/30 02:04:15;;;;;;;8.50;7.80;;;17.60;99.90;;;;;;5010007;28;20186;-66
2022/08/30 02:06:42;;;;;;;8.20;7.50;;;17.60;99.90;;;;;;5011255;28;20795;-66
2022/08/30 02:09:07;;;;;;;8.00;7.37;;;17.50;99.90;;;;;;5008827;28;20444;-66
2022/08/30 02:11:33;;;;;;;9.17;8.47;;;17.50;99.90;;;;;;5009555;28;20446;-66
2022/08/30 02:13:58;;;;;;;8.50;7.70;;;17.40;99.90;;;;;;5009567;28;20715;-66
2022/08/30 02:16:24;;;;;;;9.17;8.37;;;17.30;99.90;;;;;;5010539;28;20194;-65
2022/08/30 02:18:52;;;;;;;8.97;8.10;;;17.20;99.90;;;;;;5009216;28;20233;-65
2022/08/30 02:21:17;;;;;;;13.57;8.83;;;17.20;99.90;;;;;;5008921;28;20497;-66
2022/08/30 02:23:43;;;;;;;9.37;8.50;;;17.10;99.90;;;;;;5010467;28;20966;-66
2022/08/30 02:26:10;;;;;;;9.27;8.30;;;17.10;99.90;;;;;;5010064;28;20181;-66
2022/08/30 02:28:35;;;;;;;10.40;8.83;;;17.00;99.90;;;;;;5009238;28;20270;-65
2022/08/30 02:31:01;;;;;;;9.67;7.70;;;17.00;99.90;;;;;;5010656;28;21017;-64
2022/08/30 02:33:27;;;;;;;8.97;8.27;;;17.00;99.90;;;;;;5009661;28;20238;-66
2022/08/30 02:35:52;;;;;;;9.23;7.40;;;16.90;99.90;;;;;;5004754;28;20188;-66
2022/08/30 02:38:18;;;;;;;10.23;8.50;;;17.00;99.90;;;;;;5008116;28;20215;-64
2022/08/30 02:40:44;;;;;;;8.73;8.03;;;17.00;99.90;;;;;;5010103;28;20215;-65
2022/08/30 02:43:10;;;;;;;10.83;8.30;;;17.00;99.90;;;;;;5010502;28;20288;-66
2022/08/30 02:45:36;;;;;;;8.17;7.40;;;17.00;99.90;;;;;;5011237;28;20183;-66
2022/08/30 02:48:02;;;;;;;8.27;7.53;;;17.00;99.90;;;;;;5009181;28;20434;-66
2022/08/30 02:50:28;;;;;;;11.47;10.33;;;17.10;99.90;;;;;;5009082;28;20183;-65
2022/08/30 02:52:54;;;;;;;9.03;7.83;;;17.10;99.90;;;;;;5006263;28;20508;-66
2022/08/30 02:55:20;;;;;;;8.40;7.40;;;17.10;99.90;;;;;;5006308;28;20430;-65
2022/08/30 02:57:46;;;;;;;10.27;8.20;;;17.10;99.90;;;;;;5009809;28;20179;-64
2022/08/30 03:00:15;;;;;;;10.73;9.20;;;17.10;99.90;;;;;;5008399;28;20205;-67
2022/08/30 03:02:40;;;;;;;8.30;7.60;;;17.10;99.90;;;;;;5007806;28;20454;-67
2022/08/30 03:05:08;;;;;;;9.47;8.50;;;17.00;99.90;;;;;;5008118;28;20940;-66
2022/08/30 03:07:33;;;;;;;9.23;8.40;;;16.90;99.90;;;;;;5010334;28;20187;-68
2022/08/30 03:09:59;;;;;;;8.67;7.87;;;17.00;99.90;;;;;;5007456;28;20441;-68
2022/08/30 03:12:25;;;;;;;9.37;8.47;;;17.00;99.90;;;;;;5009451;28;20191;-66
2022/08/30 03:14:51;;;;;;;10.00;9.10;;;16.90;99.90;;;;;;5010261;28;20274;-67
2022/08/30 03:17:17;;;;;;;9.40;8.60;;;16.70;99.90;;;;;;5010856;28;20197;-68
2022/08/30 03:19:43;;;;;;;9.53;8.40;;;16.60;99.90;;;;;;5010097;28;20529;-68
2022/08/30 03:22:09;;;;;;;9.47;8.33;;;16.60;99.90;;;;;;5014401;28;20186;-68
2022/08/30 03:24:35;;;;;;;9.93;8.80;;;16.60;99.90;;;;;;5009963;28;20516;-68
2022/08/30 03:27:01;;;;;;;11.43;9.50;;;16.60;99.90;;;;;;5011844;28;20270;-68
2022/08/30 03:29:28;;;;;;;9.97;9.00;;;16.60;99.90;;;;;;5013597;28;20194;-67
2022/08/30 03:31:54;;;;;;;10.40;8.97;;;16.60;99.90;;;;;;5013783;28;20258;-68
2022/08/30 03:34:20;;;;;;;10.37;9.40;;;16.50;99.90;;;;;;5013440;28;21314;-68
2022/08/30 03:36:48;;;;;;;9.27;8.13;;;16.60;99.90;;;;;;5013436;28;20488;-68
2022/08/30 03:39:13;;;;;;;9.13;8.33;;;16.60;99.90;;;;;;5012023;28;20857;-68
2022/08/30 03:41:39;;;;;;;9.10;8.30;;;16.60;99.90;;;;;;5011423;28;20457;-67
2022/08/30 03:44:04;;;;;;;9.53;8.83;;;16.60;99.90;;;;;;5006636;28;20196;-68
2022/08/30 03:46:30;;;;;;;9.53;8.63;;;16.60;99.90;;;;;;5000383;28;20286;-67
2022/08/30 03:48:55;;;;;;;9.87;8.97;;;16.80;99.90;;;;;;5012588;28;20523;-68
2022/08/30 03:51:22;;;;;;;9.90;9.03;;;16.70;99.90;;;;;;5013057;28;20183;-68
2022/08/30 03:53:48;;;;;;;10.50;9.50;;;16.60;99.90;;;;;;5012772;28;20203;-68
2022/08/30 03:56:15;;;;;;;12.10;10.97;;;16.50;99.90;;;;;;5008784;28;20521;-68
2022/08/30 03:58:40;;;;;;;11.07;10.03;;;16.40;99.90;;;;;;5011092;28;20186;-68
2022/08/30 04:01:06;;;;;;;10.50;9.60;;;16.40;99.90;;;;;;5012319;28;20662;-68
2022/08/30 04:03:32;;;;;;;11.23;10.13;;;16.30;99.90;;;;;;5012668;28;20286;-68
2022/08/30 04:05:59;;;;;;;10.00;9.20;;;16.30;99.90;;;;;;5013880;28;20429;-68
2022/08/30 04:08:25;;;;;;;9.53;8.63;;;16.40;99.90;;;;;;5012268;28;20270;-68
2022/08/30 04:10:52;;;;;;;11.10;10.03;;;16.40;99.90;;;;;;5012347;28;20434;-67
2022/08/30 04:13:19;;;;;;;10.00;9.10;;;16.40;99.90;;;;;;5007244;28;20982;-67
2022/08/30 04:15:45;;;;;;;10.90;10.00;;;16.40;99.90;;;;;;5020868;28;20580;-68
2022/08/30 04:18:10;;;;;;;10.50;9.23;;;16.40;99.90;;;;;;5011483;28;20545;-67
2022/08/30 04:20:36;;;;;;;10.87;9.80;;;16.40;99.90;;;;;;5012027;28;20220;-68
2022/08/30 04:23:05;;;;;;;12.07;8.93;;;16.40;99.90;;;;;;5013256;28;20203;-68
2022/08/30 04:25:35;;;;;;;12.07;10.23;;;16.30;99.90;;;;;;5007143;28;20838;-66
2022/08/30 04:28:01;;;;;;;11.67;10.57;;;16.20;99.90;;;;;;5013279;28;20545;-68
2022/08/30 04:30:27;;;;;;;11.63;10.27;;;16.20;99.90;;;;;;5007611;28;20446;-68
2022/08/30 04:32:52;;;;;;;10.70;9.70;;;16.10;99.90;;;;;;5013335;28;20803;-68
2022/08/30 04:35:18;;;;;;;10.83;9.80;;;16.10;99.90;;;;;;5011734;28;20187;-67
2022/08/30 04:37:44;;;;;;;10.80;9.83;;;16.10;99.90;;;;;;5011283;28;20218;-66
2022/08/30 04:40:10;;;;;;;10.90;9.90;;;16.20;99.90;;;;;;5010528;28;20198;-67
2022/08/30 04:42:36;;;;;;;11.60;10.40;;;16.20;99.90;;;;;;5012030;28;20207;-68
2022/08/30 04:45:05;;;;;;;10.07;8.97;;;16.20;99.90;;;;;;5010909;28;20513;-68
2022/08/30 04:47:31;;;;;;;11.73;10.57;;;16.20;99.90;;;;;;5010693;28;20233;-68
2022/08/30 04:49:57;;;;;;;15.30;11.33;;;16.20;99.90;;;;;;5010132;28;20947;-68
2022/08/30 04:52:22;;;;;;;11.93;10.80;;;16.20;99.90;;;;;;5012592;28;20656;-67
2022/08/30 04:54:56;;;;;;;10.40;9.50;;;16.20;99.90;;;;;;5011167;28;20218;-67
2022/08/30 04:57:23;;;;;;;11.40;10.10;;;16.20;99.90;;;;;;5011202;28;20218;-67
2022/08/30 04:59:48;;;;;;;13.30;11.53;;;16.20;99.90;;;;;;5006949;28;20445;-68
2022/08/30 05:02:14;;;;;;;10.83;9.20;;;16.20;99.90;;;;;;5008636;28;20438;-66
2022/08/30 05:05:38;;;;;;;11.97;10.77;;;16.20;99.90;;;;;;5012157;28;20183;-71
2022/08/30 05:07:25;;;;;;;11.37;10.33;;;16.30;99.90;;;;;;5011928;28;20187;-66
2022/08/30 05:09:51;;;;;;;10.33;9.30;;;16.40;99.90;;;;;;5008634;28;20434;-66
2022/08/30 05:12:16;;;;;;;14.83;10.07;;;16.50;99.90;;;;;;5012107;28;20643;-66
2022/08/30 05:14:42;;;;;;;12.07;10.93;;;16.60;99.90;;;;;;5008676;28;20191;-64
2022/08/30 05:17:07;;;;;;;14.30;10.53;;;16.60;99.90;;;;;;5008643;28;20198;-66
2022/08/30 05:19:33;;;;;;;11.73;10.53;;;16.80;99.90;;;;;;5010423;28;20189;-68
2022/08/30 05:21:59;;;;;;;14.00;10.20;;;17.20;99.90;;;;;;5009741;28;20206;-68
2022/08/30 05:24:25;;;;;;;11.10;9.23;;;17.30;99.90;;;;;;5009801;28;20346;-67
2022/08/30 05:26:50;;;;;;;9.83;9.03;;;17.60;99.90;;;;;;5012705;28;20420;-67
2022/08/30 05:29:16;;;;;;;11.07;9.97;;;17.90;99.90;;;;;;5012359;28;20194;-67
2022/08/30 05:31:43;;;;;;;10.20;8.67;;;18.20;99.90;;;;;;5012950;28;20225;-67
2022/08/30 05:34:09;;;;;;;10.87;9.33;;;18.40;99.90;;;;;;5012919;28;20286;-67
2022/08/30 05:36:37;;;;;;;10.73;9.63;;;18.40;99.90;;;;;;5012820;28;20449;-67
2022/08/30 05:39:04;;;;;;;10.03;9.13;;;18.40;99.90;;;;;;5010469;28;20426;-67
2022/08/30 05:41:30;;;;;;;11.10;10.10;;;18.50;99.90;;;;;;5012718;28;20457;-67
2022/08/30 05:43:58;;;;;;;11.20;9.87;;;18.60;99.90;;;;;;5012675;28;21016;-67
2022/08/30 05:46:24;;;;;;;12.50;10.03;;;18.40;99.90;;;;;;5012580;28;20796;-67
2022/08/30 05:48:50;;;;;;;11.20;10.10;;;18.40;99.90;;;;;;5011809;28;20414;-68
2022/08/30 05:51:19;;;;;;;10.00;9.00;;;18.30;99.90;;;;;;5012508;28;20417;-67
2022/08/30 05:53:45;;;;;;;11.53;9.50;;;18.30;99.90;;;;;;5012589;28;20252;-67
2022/08/30 05:56:13;;;;;;;16.43;14.87;;;18.30;99.90;;;;;;5012527;28;20414;-68
2022/08/30 05:58:39;;;;;;;11.93;10.23;;;18.40;99.90;;;;;;5011738;28;20422;-67
2022/08/30 06:01:05;;;;;;;10.80;9.77;;;18.50;99.90;;;;;;5012328;28;20927;-67
2022/08/30 06:03:33;;;;;;;9.97;8.97;;;18.50;99.90;;;;;;5012314;28;20244;-67
2022/08/30 06:05:59;;;;;;;11.43;10.17;;;18.60;99.90;;;;;;5012334;28;20636;-67
2022/08/30 06:08:25;;;;;;;13.13;11.50;;;18.90;99.90;;;;;;5011714;28;20420;-67
2022/08/30 06:10:51;;;;;;;12.57;11.37;;;19.20;99.90;;;;;;5012394;28;20784;-67
2022/08/30 06:13:17;;;;;;;13.83;12.70;;;19.50;99.90;;;;;;5010873;28;20641;-67
2022/08/30 06:15:43;;;;;;;12.77;11.63;;;19.60;99.90;;;;;;5012322;28;20179;-67
2022/08/30 06:18:10;;;;;;;11.70;10.70;;;19.40;99.90;;;;;;5012074;28;20171;-67
2022/08/30 06:20:46;;;;;;;13.53;11.73;;;19.50;99.90;;;;;;5011911;28;20461;-67
2022/08/30 06:23:12;;;;;;;14.37;12.87;;;19.80;99.90;;;;;;5012202;28;20476;-68
2022/08/30 06:25:38;;;;;;;13.80;12.27;;;20.00;99.90;;;;;;5012300;28;20418;-67
2022/08/30 06:28:05;;;;;;;11.87;10.67;;;20.40;99.90;;;;;;5012327;28;20762;-67
2022/08/30 06:30:31;;;;;;;12.13;11.17;;;20.50;99.90;;;;;;5011424;28;20421;-67
2022/08/30 06:32:57;;;;;;;12.40;11.10;;;20.70;99.90;;;;;;5012112;28;20441;-67
2022/08/30 06:35:23;;;;;;;13.10;11.70;;;21.00;99.90;;;;;;5012231;28;20763;-67
2022/08/30 06:37:49;;;;;;;12.50;11.20;;;21.30;99.90;;;;;;5010720;28;20535;-67
2022/08/30 06:40:17;;;;;;;13.07;11.00;;;21.50;99.90;;;;;;5011517;28;20461;-67
2022/08/30 06:42:42;;;;;;;14.00;10.63;;;21.50;99.90;;;;;;5012154;28;20437;-67
2022/08/30 06:45:08;;;;;;;10.73;9.63;;;21.70;99.90;;;;;;5010949;28;20812;-67
2022/08/30 06:47:34;;;;;;;11.57;10.57;;;21.80;99.90;;;;;;5012482;28;20178;-67
2022/08/30 06:50:00;;;;;;;14.10;12.13;;;21.70;99.90;;;;;;5011384;28;20413;-67
2022/08/30 06:52:25;;;;;;;11.63;10.30;;;21.70;99.90;;;;;;5011958;28;20171;-67
2022/08/30 06:54:53;;;;;;;14.50;10.57;;;21.70;99.90;;;;;;5012016;28;20492;-67
2022/08/30 06:57:18;;;;;;;13.17;10.50;;;21.90;99.90;;;;;;5011983;28;20178;-67
2022/08/30 06:59:44;;;;;;;12.67;10.47;;;21.90;99.90;;;;;;5009901;28;20792;-67
2022/08/30 07:02:09;;;;;;;13.07;11.87;;;22.10;99.90;;;;;;5013728;28;20241;-67
2022/08/30 07:04:35;;;;;;;11.77;10.97;;;22.20;99.90;;;;;;5015665;28;20191;-67
2022/08/30 07:07:00;;;;;;;12.37;11.20;;;22.30;99.90;;;;;;5015625;28;20250;-67
2022/08/30 07:09:26;;;;;;;11.43;10.33;;;22.30;99.90;;;;;;5014943;28;20702;-67
2022/08/30 07:11:52;;;;;;;10.83;9.33;;;22.30;99.90;;;;;;5015637;28;20178;-67
2022/08/30 07:14:19;;;;;;;13.13;11.20;;;22.30;99.90;;;;;;5021471;23;20231;-66
2022/08/30 07:16:44;;;;;;;15.03;13.43;;;22.30;99.90;;;;;;4989680;28;20951;-67
2022/08/30 07:19:10;;;;;;;13.67;12.37;;;22.70;99.90;;;;;;4994991;28;20422;-66
2022/08/30 07:21:38;;;;;;;12.07;10.97;;;22.80;99.90;;;;;;4995835;28;20702;-66
2022/08/30 07:24:05;;;;;;;11.83;10.00;;;23.10;99.90;;;;;;4995657;28;20203;-66
2022/08/30 07:26:37;;;;;;;13.03;9.90;;;22.80;99.90;;;;;;4995737;28;20460;-66
2022/08/30 07:29:03;;;;;;;10.83;9.73;;;23.10;99.90;;;;;;4994879;28;20418;-66
2022/08/30 07:31:31;;;;;;;10.80;9.90;;;23.50;99.90;;;;;;4995486;28;20947;-66
2022/08/30 07:33:57;;;;;;;11.63;10.63;;;23.70;99.90;;;;;;4995453;28;20438;-66
2022/08/30 07:36:23;;;;;;;11.33;10.27;;;23.90;99.90;;;;;;4995532;28;20565;-66
2022/08/30 07:38:49;;;;;;;10.70;9.70;;;24.00;99.90;;;;;;4994739;28;20315;-66
2022/08/30 07:41:27;;;;;;;9.80;8.70;;;24.00;99.90;;;;;;4995447;28;20491;-66
2022/08/30 07:43:54;;;;;;;10.23;9.33;;;24.20;99.90;;;;;;4995152;28;20443;-66
2022/08/30 07:46:21;;;;;;;10.13;9.10;;;24.40;99.90;;;;;;4995848;28;20421;-66
2022/08/30 07:48:46;;;;;;;9.83;8.83;;;24.50;99.90;;;;;;4994587;28;20415;-66
2022/08/30 07:51:17;;;;;;;12.50;11.33;;;24.60;99.90;;;;;;4995224;28;20514;-66
2022/08/30 07:53:42;;;;;;;13.27;10.20;;;24.80;99.90;;;;;;4995156;28;20191;-66
2022/08/30 07:56:08;;;;;;;9.40;8.70;;;25.00;99.90;;;;;;4995163;28;20427;-66
2022/08/30 07:58:36;;;;;;;10.10;9.00;;;25.00;99.90;;;;;;4994227;28;20186;-67
2022/08/30 08:01:04;;;;;;;11.43;9.87;;;25.10;99.90;;;;;;4995028;28;20668;-66
2022/08/30 08:03:29;;;;;;;9.33;8.53;;;25.30;99.90;;;;;;4994989;28;21001;-66
2022/08/30 08:05:55;;;;;;;11.53;10.33;;;25.50;99.90;;;;;;4995041;28;20411;-66
2022/08/30 08:08:22;;;;;;;10.27;9.37;;;24.70;99.90;;;;;;4994272;28;20284;-67
2022/08/30 08:10:47;;;;;;;10.73;9.07;;;24.80;99.90;;;;;;4994898;28;20418;-67
2022/08/30 08:13:13;;;;;;;8.67;7.90;;;25.00;99.90;;;;;;4994477;28;20549;-66
2022/08/30 08:15:39;;;;;;;9.70;8.90;;;25.00;99.90;;;;;;4994778;28;20180;-66
2022/08/30 08:18:05;;;;;;;9.77;8.77;;;25.30;99.90;;;;;;4994613;28;20186;-66
2022/08/30 08:20:32;;;;;;;10.30;9.40;;;25.70;99.90;;;;;;4994081;28;20200;-66
2022/08/30 08:22:58;;;;;;;9.67;8.87;;;25.50;99.90;;;;;;4994635;28;20447;-67
2022/08/30 08:25:25;;;;;;;9.53;8.73;;;25.50;99.90;;;;;;4994525;28;20862;-67
2022/08/30 08:27:51;;;;;;;9.53;8.63;;;25.80;99.90;;;;;;4994453;28;20434;-66
2022/08/30 08:30:18;;;;;;;9.93;9.03;;;25.90;99.90;;;;;;4993896;28;20904;-66
2022/08/30 08:32:44;;;;;;;9.77;8.97;;;26.10;99.90;;;;;;4994494;28;20426;-67
2022/08/30 08:35:10;;;;;;;9.53;8.60;;;26.00;99.90;;;;;;4994536;28;20427;-67
2022/08/30 08:37:37;;;;;;;10.27;9.20;;;26.30;99.90;;;;;;4994301;28;20265;-66
2022/08/30 08:40:04;;;;;;;9.13;8.33;;;26.90;99.90;;;;;;4993420;28;20453;-67
2022/08/30 08:42:35;;;;;;;9.27;8.37;;;27.10;99.90;;;;;;4994108;28;20488;-66
2022/08/30 08:45:11;;;;;;;9.70;8.73;;;27.40;99.90;;;;;;4994293;28;21069;-66
2022/08/30 08:48:01;;;;;;;7.60;7.00;;;27.60;99.90;;;;;;4994308;28;20429;-67
2022/08/30 08:50:28;;;;;;;9.03;8.23;;;28.00;99.90;;;;;;4993512;28;20419;-67
2022/08/30 08:55:56;;;;;;;8.83;8.03;;;28.40;99.30;;;;;;4994408;28;20461;-67
2022/08/30 08:58:29;;;;;;;7.90;7.10;;;28.30;98.40;;;;;;4993276;28;20514;-66
2022/08/30 09:00:57;;;;;;;8.00;7.40;;;28.50;98.60;;;;;;4993869;28;21017;-67
2022/08/30 09:03:26;;;;;;;9.70;8.93;;;29.20;97.50;;;;;;4993781;28;20838;-67
2022/08/30 09:05:53;;;;;;;8.90;8.10;;;29.50;95.80;;;;;;4993870;28;20497;-67
2022/08/30 09:08:22;;;;;;;9.10;8.20;;;29.70;95.30;;;;;;4993100;28;20418;-67
2022/08/30 09:11:02;;;;;;;8.00;7.20;;;30.20;94.30;;;;;;4992619;28;20450;-67
2022/08/30 09:13:27;;;;;;;8.17;7.43;;;30.80;92.70;;;;;;4993509;28;20458;-67
2022/08/30 09:15:55;;;;;;;8.77;7.97;;;30.50;92.30;;;;;;4993893;28;20431;-67
2022/08/30 09:18:41;;;;;;;9.20;7.83;;;31.20;91.20;;;;;;4993026;28;20258;-67
2022/08/30 09:21:08;;;;;;;8.20;7.60;;;31.80;88.50;;;;;;4993526;28;20457;-67
2022/08/30 09:23:33;;;;;;;8.60;7.80;;;32.20;87.00;;;;;;4992070;28;20443;-67
2022/08/30 09:26:02;;;;;;;8.13;7.50;;;32.80;83.90;;;;;;4993011;28;20427;-67
2022/08/30 09:28:31;;;;;;;7.70;7.00;;;33.20;81.50;;;;;;4992752;28;20175;-67
2022/08/30 09:30:59;;;;;;;8.70;8.00;;;33.80;78.40;;;;;;4993409;28;20429;-67
2022/08/30 09:33:24;;;;;;;7.90;7.40;;;33.90;77.00;;;;;;4993328;28;20497;-67
2022/08/30 09:35:51;;;;;;;8.37;7.67;;;34.40;73.40;;;;;;4992099;28;20430;-67
2022/08/30 09:38:28;;;;;;;9.07;8.20;;;34.80;71.40;;;;;;4990876;28;20597;-67
2022/08/30 09:40:57;;;;;;;8.07;7.40;;;35.30;68.80;;;;;;4993114;28;20454;-67
2022/08/30 09:43:29;;;;;;;8.00;7.50;;;35.80;65.70;;;;;;4993144;28;20940;-67
2022/08/30 09:46:00;;;;;;;9.60;8.53;;;35.70;65.10;;;;;;4993174;28;20699;-67
2022/08/30 09:48:25;;;;;;;8.37;7.67;;;36.10;63.60;;;;;;4992340;28;20429;-67
2022/08/30 09:50:59;;;;;;;7.97;7.30;;;36.30;62.20;;;;;;4993071;28;20415;-67
2022/08/30 09:53:32;;;;;;;8.33;7.60;;;36.20;61.40;;;;;;4992973;28;20270;-67
2022/08/30 09:56:26;;;;;;;7.13;6.63;;;36.40;59.70;;;;;;4992952;28;20430;-67
2022/08/30 09:59:12;;;;;;;8.00;7.33;;;36.70;58.30;;;;;;4958863;28;20430;-68
2022/08/30 10:01:44;;;;;;;6.67;6.23;;;36.50;58.00;;;;;;4992926;28;20545;-67
2022/08/30 10:04:22;;;;;;;7.23;6.73;;;36.60;56.10;;;;;;4992865;28;20434;-67
2022/08/30 10:06:56;;;;;;;6.93;6.23;;;36.60;55.90;;;;;;4993007;28;20433;-67
2022/08/30 10:09:35;;;;;;;6.40;5.90;;;37.10;55.20;;;;;;4992239;28;20429;-67
2022/08/30 10:12:33;;;;;;;7.60;7.00;;;37.80;54.60;;;;;;4992817;28;20423;-67
2022/08/30 10:15:23;;;;;;;6.13;5.73;;;38.50;52.60;;;;;;4992621;28;20438;-67
2022/08/30 10:18:10;;;;;;;6.37;5.90;;;38.60;52.00;;;;;;4992768;28;20430;-67
2022/08/30 10:21:12;;;;;;;9.00;5.80;;;39.10;51.60;;;;;;4992316;28;20446;-68
2022/08/30 10:23:46;;;;;;;6.13;5.73;;;39.50;49.20;;;;;;4992557;28;20977;-67
2022/08/30 10:26:25;;;;;;;6.07;5.63;;;40.30;48.70;;;;;;4992709;28;20414;-68
2022/08/30 10:29:02;;;;;;;7.03;6.57;;;40.50;48.00;;;;;;4991926;28;20415;-68
2022/08/30 10:31:46;;;;;;;7.10;6.50;;;40.60;46.90;;;;;;4992646;28;20426;-68
2022/08/30 10:34:25;;;;;;;5.93;5.63;;;40.10;47.20;;;;;;4992555;28;20802;-67
2022/08/30 10:37:23;;;;;;;7.23;5.67;;;40.20;46.10;;;;;;4992490;28;20429;-67
2022/08/30 10:39:58;;;;;;;6.53;6.03;;;40.10;45.10;;;;;;4995534;28;20474;-67
2022/08/30 10:42:31;;;;;;;7.17;6.57;;;37.20;47.80;;;;;;4996563;28;20433;-67
2022/08/30 10:45:14;;;;;;;7.30;6.70;;;36.70;49.60;;;;;;4996416;28;20429;-67
2022/08/30 10:47:52;;;;;;;6.50;6.03;;;38.60;47.30;;;;;;4996485;28;20419;-67
2022/08/30 10:50:34;;;;;;;6.93;6.33;;;40.30;46.00;;;;;;4995698;28;20415;-67
2022/08/30 10:53:10;;;;;;;6.80;6.30;;;40.40;45.10;;;;;;4996307;28;20967;-68
2022/08/30 10:55:50;;;;;;;6.10;5.80;;;40.30;45.80;;;;;;4996210;28;20908;-68
2022/08/30 10:58:17;;;;;;;6.00;5.60;;;41.40;44.60;;;;;;4995546;28;20422;-68
2022/08/30 11:01:05;;;;;;;5.63;5.23;;;42.10;43.30;;;;;;4996132;28;20566;-68
2022/08/30 11:03:46;;;;;;;6.40;5.90;;;43.00;41.90;;;;;;4996102;28;20900;-68
2022/08/30 11:06:15;;;;;;;6.93;6.20;;;42.30;40.50;;;;;;4996139;28;20513;-68
2022/08/30 11:09:01;;;;;;;6.23;5.83;;;39.30;42.60;;;;;;4995318;28;20902;-68
2022/08/30 11:11:40;;;;;;;5.73;5.43;;;40.30;43.60;;;;;;4996137;28;20427;-68
2022/08/30 11:14:09;;;;;;;5.93;5.40;;;41.20;41.40;;;;;;4995747;28;20469;-67
2022/08/30 11:16:39;;;;;;;5.60;5.20;;;41.60;41.10;;;;;;4995904;28;20950;-68
2022/08/30 11:19:22;;;;;;;8.50;7.73;;;42.50;40.20;;;;;;4995176;28;20422;-67
2022/08/30 11:21:50;;;;;;;7.53;7.13;;;42.80;40.10;;;;;;4995807;28;20464;-68
2022/08/30 11:24:23;;;;;;;6.50;6.00;;;43.10;40.50;;;;;;4995611;28;20434;-68
2022/08/30 11:26:55;;;;;;;6.47;6.07;;;43.60;39.50;;;;;;4995758;28;20410;-68
2022/08/30 11:29:39;;;;;;;6.57;6.07;;;43.40;39.30;;;;;;4995031;28;20415;-68
2022/08/30 11:32:11;;;;;;;6.77;6.23;;;44.20;38.70;;;;;;4995445;28;20415;-68
2022/08/30 11:34:45;;;;;;;6.40;6.00;;;44.00;38.20;;;;;;4995677;28;20449;-68
2022/08/30 11:37:40;;;;;;;6.77;6.27;;;43.30;38.80;;;;;;4993925;28;20776;-68
2022/08/30 11:40:18;;;;;;;6.63;6.23;;;42.80;38.90;;;;;;4994591;28;20442;-68
2022/08/30 11:42:46;;;;;;;6.57;6.03;;;40.70;39.60;;;;;;4995378;28;20425;-67
2022/08/30 11:45:21;;;;;;;6.43;5.93;;;38.90;41.00;;;;;;4995349;28;20790;-67
2022/08/30 11:48:01;;;;;;;6.17;5.67;;;36.50;42.70;;;;;;4994888;28;20476;-67
2022/08/30 11:50:35;;;;;;;6.70;6.20;;;35.10;45.50;;;;;;4994732;28;20459;-67
2022/08/30 11:53:30;;;;;;;6.60;6.20;;;35.20;45.20;;;;;;4995172;28;20444;-67
2022/08/30 11:56:20;;;;;;;7.47;6.77;;;35.00;45.10;;;;;;4995385;28;20843;-67
2022/08/30 11:59:10;;;;;;;6.87;6.47;;;35.30;45.10;;;;;;4994432;28;20465;-67
2022/08/30 12:01:38;;;;;;;6.60;6.10;;;35.80;44.30;;;;;;4995082;28;20561;-67
2022/08/30 12:04:10;;;;;;;6.20;5.90;;;35.80;44.20;;;;;;4994897;28;20451;-67
2022/08/30 12:06:39;;;;;;;7.13;6.40;;;35.50;44.30;;;;;;4994972;28;20912;-67
2022/08/30 12:09:09;;;;;;;7.17;6.70;;;35.00;45.40;;;;;;4994190;28;20501;-67
2022/08/30 12:11:34;;;;;;;7.43;6.93;;;34.50;45.90;;;;;;4994969;28;20932;-67
2022/08/30 12:14:06;;;;;;;7.77;7.10;;;33.90;46.70;;;;;;4994683;28;20447;-67
2022/08/30 12:18:26;;;;;;;8.37;7.67;;;33.60;47.70;;;;;;4994795;28;20175;-67
2022/08/30 12:19:25;;;;;;;7.40;6.73;;;33.80;47.50;;;;;;4993989;28;20798;-67
2022/08/30 12:22:04;;;;;;;7.40;6.80;;;34.60;46.70;;;;;;4994724;28;20830;-67
2022/08/30 12:24:52;;;;;;;6.57;6.07;;;35.20;46.10;;;;;;4994643;28;20952;-67
2022/08/30 12:27:32;;;;;;;7.50;7.00;;;35.30;45.70;;;;;;4994734;28;20781;-67
2022/08/30 12:30:06;;;;;;;7.40;6.90;;;34.60;46.20;;;;;;4993924;28;20437;-67
2022/08/30 12:32:41;;;;;;;6.63;6.03;;;33.90;47.50;;;;;;4994530;28;20454;-67
2022/08/30 12:35:18;;;;;;;7.77;7.07;;;33.60;47.70;;;;;;4994364;28;20425;-67
2022/08/30 12:37:56;;;;;;;6.50;6.10;;;33.40;48.30;;;;;;4994295;28;20414;-67
2022/08/30 12:40:24;;;;;;;7.30;6.80;;;33.10;47.90;;;;;;4992350;28;20462;-67
2022/08/30 12:42:49;;;;;;;6.63;6.13;;;33.10;48.40;;;;;;4994266;28;20426;-67
2022/08/30 12:45:21;;;;;;;5.80;5.40;;;34.60;47.70;;;;;;4994177;28;20784;-67
2022/08/30 12:47:52;;;;;;;6.23;5.83;;;35.80;45.50;;;;;;4994112;28;20513;-67
2022/08/30 12:50:28;;;;;;;6.63;6.23;;;35.50;46.00;;;;;;4993368;28;20513;-67
2022/08/30 12:52:56;;;;;;;6.63;6.13;;;35.00;45.60;;;;;;4993786;28;20989;-67
2022/08/30 12:55:26;;;;;;;7.27;6.60;;;34.30;46.30;;;;;;4993972;28;20786;-67
2022/08/30 12:58:02;;;;;;;6.73;6.20;;;33.80;46.60;;;;;;4993827;28;20790;-67